Time;durP1;ratioP1;P1;durP2;ratioP2;P2;SDS_P1;SDS_P2;PMS_P1;PMS_P2;Temp;Humidity;BMP_temperature;BMP_pressure;BME280_temperature;BME280_humidity;BME280_pressure;Samples;Min_cycle;Max_cycle;Signal;HPM_P1;HPM_P2
2022/11/27 00:00:46;;;;;;;;;;;;;;;4.23;100.00;101627.94;5570028;32;34473;-73
2022/11/27 00:03:55;;;;;;;;;;;;;;;4.23;100.00;101632.34;5568534;32;34604;-73
2022/11/27 00:07:03;;;;;;;;;;;;;;;4.22;100.00;101642.00;5569240;32;34559;-73
2022/11/27 00:10:11;;;;;;;;;;;;;;;4.24;100.00;101640.16;5568837;32;35628;-73
2022/11/27 00:13:19;;;;;;;;;;;;;;;4.22;100.00;101635.91;5569070;32;35207;-73
2022/11/27 00:16:27;;;;;;;;;;;;;;;4.23;100.00;101648.13;5574386;31;35168;-73
2022/11/27 00:19:36;;;;;;;;;;;;;;;4.23;100.00;101642.88;5574879;31;34157;-73
2022/11/27 00:22:41;;;;;;;;;;;;;;;4.23;100.00;101627.09;5589294;31;34417;-73
2022/11/27 00:25:52;;;;;;;;;;;;;;;4.24;100.00;101634.91;5575676;31;34578;-73
2022/11/27 00:28:59;;;;;;;;;;;;;;;4.24;100.00;101632.28;5589184;31;34980;-73
2022/11/27 00:32:09;;;;;;;;;;;;;;;4.22;100.00;101634.13;5576009;31;35047;-73
2022/11/27 00:35:17;;;;;;;;;;;;;;;4.20;100.00;101632.56;5575084;31;35895;-74
2022/11/27 00:38:23;;;;;;;;;;;;;;;4.24;100.00;101641.94;5590890;31;35209;-73
2022/11/27 00:41:29;;;;;;;;;;;;;;;4.25;100.00;101641.84;5595671;31;34524;-74
2022/11/27 00:44:34;;;;;;;;;;;;;;;4.27;100.00;101631.22;5595566;31;34735;-73
2022/11/27 00:47:41;;;;;;;;;;;;;;;4.24;100.00;101652.44;5595528;31;34553;-74
2022/11/27 00:50:47;;;;;;;;;;;;;;;4.22;100.00;101654.31;5595539;31;35121;-74
2022/11/27 00:53:52;;;;;;;;;;;;;;;4.22;100.00;101651.69;5595387;31;35155;-73
2022/11/27 00:57:01;;;;;;;;;;;;;;;4.18;100.00;101653.66;5595394;31;34528;-73
2022/11/27 01:00:08;;;;;;;;;;;;;;;4.12;100.00;101651.41;5595330;31;34604;-73
2022/11/27 01:03:13;;;;;;;;;;;;;;;4.10;100.00;101650.69;5595175;31;34557;-74
2022/11/27 01:06:19;;;;;;;;;;;;;;;4.06;100.00;101651.81;5595255;31;34488;-73
2022/11/27 01:09:25;;;;;;;;;;;;;;;4.00;100.00;101644.31;5595139;31;35141;-73
2022/11/27 01:12:31;;;;;;;;;;;;;;;4.00;100.00;101652.19;5595059;31;34928;-73
2022/11/27 01:15:37;;;;;;;;;;;;;;;3.96;100.00;101653.31;5594952;31;34909;-73
2022/11/27 01:18:46;;;;;;;;;;;;;;;3.84;100.00;101665.41;5594728;31;33095;-73
2022/11/27 01:21:53;;;;;;;;;;;;;;;3.80;100.00;101644.69;5580795;31;35441;-73
2022/11/27 01:25:02;;;;;;;;;;;;;;;3.75;100.00;101655.47;5594776;31;34996;-73
2022/11/27 01:28:10;;;;;;;;;;;;;;;3.74;100.00;101647.66;5580448;31;35694;-73
2022/11/27 01:31:18;;;;;;;;;;;;;;;3.75;100.00;101651.97;5594737;31;34441;-73
2022/11/27 01:34:23;;;;;;;;;;;;;;;3.73;100.00;101644.19;5594621;31;35089;-73
2022/11/27 01:37:28;;;;;;;;;;;;;;;3.75;100.00;101647.59;5568003;31;35010;-73
2022/11/27 01:40:34;;;;;;;;;;;;;;;3.76;100.00;101653.69;5581609;31;34607;-74
2022/11/27 01:43:43;;;;;;;;;;;;;;;3.76;100.00;101656.31;5594558;31;34420;-73
2022/11/27 01:47:01;;;;;;;;;;;;;;;3.78;100.00;101654.41;5581394;31;35090;-73
2022/11/27 01:50:11;;;;;;;;;;;;;;;3.73;100.00;101656.47;5592795;31;34581;-73
2022/11/27 01:53:18;;;;;;;;;;;;;;;3.71;100.00;101656.59;5590789;31;34571;-73
2022/11/27 01:56:26;;;;;;;;;;;;;;;3.69;100.00;101655.81;5577445;31;34914;-73
2022/11/27 01:59:36;;;;;;;;;;;;;;;3.68;100.00;101662.00;5590774;31;34468;-74
2022/11/27 02:02:45;;;;;;;;;;;;;;;3.72;100.00;101655.66;5590697;31;34658;-73
2022/11/27 02:05:51;;;;;;;;;;;;;;;3.72;100.00;101657.44;5590666;31;35056;-73
2022/11/27 02:08:57;;;;;;;;;;;;;;;3.62;100.00;101664.16;5577223;31;34875;-73
2022/11/27 02:12:23;;;;;;;;;;;;;;;3.68;100.00;101663.81;5577116;31;34578;-73
2022/11/27 02:15:34;;;;;;;;;;;;;;;3.60;100.00;101663.41;5590578;31;34533;-74
2022/11/27 02:18:53;;;;;;;;;;;;;;;3.60;100.00;101663.41;5590600;31;34592;-73
2022/11/27 02:22:04;;;;;;;;;;;;;;;3.56;100.00;101662.75;5590500;31;35247;-73
2022/11/27 02:25:16;;;;;;;;;;;;;;;3.60;100.00;101663.41;5577216;31;35238;-73
2022/11/27 02:28:33;;;;;;;;;;;;;;;3.65;100.00;101659.56;5590717;31;34911;-73
2022/11/27 02:31:43;;;;;;;;;;;;;;;3.45;100.00;101657.28;5577451;31;35099;-73
2022/11/27 02:34:58;;;;;;;;;;;;;;;3.43;100.00;101652.16;5590506;31;34610;-73
2022/11/27 02:38:09;;;;;;;;;;;;;;;3.48;100.00;101659.75;5590379;31;35088;-73
2022/11/27 02:41:20;;;;;;;;;;;;;;;3.49;100.00;101664.03;5590771;31;34554;-73
2022/11/27 02:44:31;;;;;;;;;;;;;;;3.47;100.00;101668.56;5590325;31;35024;-73
2022/11/27 02:47:38;;;;;;;;;;;;;;;3.45;100.00;101666.00;5590299;31;35044;-73
2022/11/27 02:50:46;;;;;;;;;;;;;;;3.43;100.00;101669.66;5590272;31;35017;-73
2022/11/27 02:54:01;;;;;;;;;;;;;;;3.47;100.00;101673.78;5576901;31;34639;-73
2022/11/27 02:57:08;;;;;;;;;;;;;;;3.47;100.00;101668.56;5590558;31;34808;-75
2022/11/27 03:00:13;;;;;;;;;;;;;;;3.43;100.00;101669.66;5590155;31;34491;-74
2022/11/27 03:03:26;;;;;;;;;;;;;;;3.40;100.00;101665.44;5589629;31;34467;-72
2022/11/27 03:06:42;;;;;;;;;;;;;;;3.40;100.00;101668.06;5590173;31;34603;-73
2022/11/27 03:09:52;;;;;;;;;;;;;;;3.29;100.00;101672.25;5590119;31;35093;-73
2022/11/27 03:13:02;;;;;;;;;;;;;;;3.35;100.00;101679.75;5590105;31;34543;-72
2022/11/27 03:16:16;;;;;;;;;;;;;;;3.38;100.00;101674.34;5589905;31;34489;-72
2022/11/27 03:19:26;;;;;;;;;;;;;;;3.37;100.00;101677.87;5590119;31;34329;-72
2022/11/27 03:22:36;;;;;;;;;;;;;;;3.34;100.00;101670.22;5590063;31;35059;-73
2022/11/27 03:25:46;;;;;;;;;;;;;;;3.32;100.00;101672.06;5589996;31;34517;-73
2022/11/27 03:28:58;;;;;;;;;;;;;;;3.35;100.00;101679.75;5589794;31;34469;-72
2022/11/27 03:32:06;;;;;;;;;;;;;;;3.40;100.00;101670.69;5589871;31;35071;-72
2022/11/27 03:35:15;;;;;;;;;;;;;;;3.36;100.00;101682.28;5589800;31;35187;-74
2022/11/27 03:38:20;;;;;;;;;;;;;;;3.36;100.00;101674.41;5589941;31;34947;-73
2022/11/27 03:41:33;;;;;;;;;;;;;;;3.42;100.00;101686.34;5589899;31;35097;-73
2022/11/27 03:44:39;;;;;;;;;;;;;;;3.47;100.00;101682.50;5589872;31;34602;-73
2022/11/27 03:47:51;;;;;;;;;;;;;;;3.57;100.00;101685.44;5589854;31;34435;-73
2022/11/27 03:50:58;;;;;;;;;;;;;;;3.46;100.00;101688.69;5590085;31;34540;-73
2022/11/27 03:54:11;;;;;;;;;;;;;;;3.43;100.00;101686.25;5589759;31;34710;-73
2022/11/27 03:57:34;;;;;;;;;;;;;;;3.49;100.00;101685.03;5589793;31;34554;-73
2022/11/27 04:00:44;;;;;;;;;;;;;;;3.48;100.00;101699.94;5589615;31;35014;-73
2022/11/27 04:03:52;;;;;;;;;;;;;;;3.51;100.00;101680.53;5589485;31;35104;-73
2022/11/27 04:07:00;;;;;;;;;;;;;;;3.50;100.00;101684.09;5589546;31;34390;-74
2022/11/27 04:10:08;;;;;;;;;;;;;;;3.40;100.00;101681.16;5589493;31;35036;-74
2022/11/27 04:13:16;;;;;;;;;;;;;;;3.48;100.00;101680.75;5574913;31;34592;-72
2022/11/27 04:16:25;;;;;;;;;;;;;;;3.48;100.00;101683.38;5589237;31;34474;-74
2022/11/27 04:19:34;;;;;;;;;;;;;;;3.45;100.00;101680.91;5589370;31;34622;-73
2022/11/27 04:22:42;;;;;;;;;;;;;;;3.44;100.00;101680.06;5589392;31;34556;-73
2022/11/27 04:25:48;;;;;;;;;;;;;;;3.60;100.00;101682.62;5589360;31;34951;-73
2022/11/27 04:28:56;;;;;;;;;;;;;;;3.59;100.00;101686.16;5589137;31;34566;-72
2022/11/27 04:32:04;;;;;;;;;;;;;;;3.57;100.00;101688.06;5575642;31;34303;-72
2022/11/27 04:35:11;;;;;;;;;;;;;;;3.62;100.00;101688.63;5589244;31;34381;-73
2022/11/27 04:38:25;;;;;;;;;;;;;;;3.67;100.00;101681.34;5589257;31;34939;-73
2022/11/27 04:41:34;;;;;;;;;;;;;;;3.67;100.00;101676.09;5589166;31;33899;-73
2022/11/27 04:44:40;;;;;;;;;;;;;;;3.67;100.00;101678.72;5589067;31;34625;-73
2022/11/27 04:47:49;;;;;;;;;;;;;;;3.63;100.00;101673.72;5588853;31;35125;-73
2022/11/27 04:50:56;;;;;;;;;;;;;;;3.75;100.00;101679.09;5588884;31;34973;-73
2022/11/27 04:54:02;;;;;;;;;;;;;;;3.82;100.00;101679.56;5588837;31;35005;-73
2022/11/27 04:57:07;;;;;;;;;;;;;;;3.88;100.00;101677.37;5588615;31;34894;-73
2022/11/27 05:00:13;;;;;;;;;;;;;;;4.06;100.00;101678.06;5588759;31;34594;-73
2022/11/27 05:03:19;;;;;;;;;;;;;;;4.00;100.00;101670.56;5588690;31;34795;-73
2022/11/27 05:06:26;;;;;;;;;;;;;;;4.00;100.00;101675.81;5575461;31;34520;-73
2022/11/27 05:09:31;;;;;;;;;;;;;;;4.08;100.00;101659.56;5588619;31;34863;-73
2022/11/27 05:12:39;;;;;;;;;;;;;;;4.18;100.00;101673.81;5589018;31;35091;-73
2022/11/27 05:15:46;;;;;;;;;;;;;;;4.22;100.00;101668.28;5588357;31;35063;-73
2022/11/27 05:18:56;;;;;;;;;;;;;;;4.26;100.00;101669.78;5588384;31;34725;-73
2022/11/27 05:22:04;;;;;;;;;;;;;;;4.19;100.00;101675.53;5588277;31;34566;-72
2022/11/27 05:25:11;;;;;;;;;;;;;;;4.05;100.00;101672.91;5589596;31;34250;-75
2022/11/27 05:28:18;;;;;;;;;;;;;;;4.28;100.00;101670.53;5590912;31;35110;-74
2022/11/27 05:31:30;;;;;;;;;;;;;;;4.24;100.00;101673.44;5578363;31;34916;-73
2022/11/27 05:34:36;;;;;;;;;;;;;;;4.17;100.00;101667.72;5591020;31;35122;-74
2022/11/27 05:37:44;;;;;;;;;;;;;;;4.27;100.00;101668.00;5590978;31;34510;-73
2022/11/27 05:40:52;;;;;;;;;;;;;;;4.25;100.00;101669.88;5590989;31;34501;-73
2022/11/27 05:44:01;;;;;;;;;;;;;;;4.27;100.00;101670.63;5577801;31;34652;-73
2022/11/27 05:47:07;;;;;;;;;;;;;;;4.22;100.00;101664.81;5590843;31;35215;-73
2022/11/27 05:50:14;;;;;;;;;;;;;;;4.17;100.00;101659.84;5576976;31;35342;-73
2022/11/27 05:53:21;;;;;;;;;;;;;;;4.14;100.00;101669.69;5590766;31;34727;-73
2022/11/27 05:56:27;;;;;;;;;;;;;;;4.10;100.00;101662.97;5590642;31;34960;-73
2022/11/27 05:59:36;;;;;;;;;;;;;;;4.11;100.00;101659.41;5576484;31;34561;-73
2022/11/27 06:02:42;;;;;;;;;;;;;;;4.22;100.00;101667.44;5577017;31;35445;-73
2022/11/27 06:05:50;;;;;;;;;;;;;;;4.21;100.00;101663.97;5590752;31;35056;-73
2022/11/27 06:08:57;;;;;;;;;;;;;;;4.21;100.00;101669.22;5590682;31;34621;-74
2022/11/27 06:12:06;;;;;;;;;;;;;;;4.30;100.00;101670.44;5590566;31;34520;-73
2022/11/27 06:15:12;;;;;;;;;;;;;;;4.34;100.00;101674.56;5590432;31;35321;-72
2022/11/27 06:18:20;;;;;;;;;;;;;;;4.42;100.00;101677.53;5590413;31;34529;-73
2022/11/27 06:21:28;;;;;;;;;;;;;;;4.41;100.00;101678.47;5576881;31;34950;-73
2022/11/27 06:24:34;;;;;;;;;;;;;;;4.36;100.00;101677.91;5590395;31;35270;-74
2022/11/27 06:27:41;;;;;;;;;;;;;;;4.31;100.00;101691.34;5590750;31;34647;-74
2022/11/27 06:30:49;;;;;;;;;;;;;;;4.38;100.00;101691.81;5590445;31;34535;-73
2022/11/27 06:33:56;;;;;;;;;;;;;;;4.38;100.00;101697.91;5590491;31;34903;-73
2022/11/27 06:37:04;;;;;;;;;;;;;;;4.37;100.00;101704.09;5589594;31;34557;-72
2022/11/27 06:40:16;;;;;;;;;;;;;;;4.47;100.00;101703.53;5590207;31;35174;-73
2022/11/27 06:43:25;;;;;;;;;;;;;;;4.40;100.00;101695.19;5590146;31;34558;-73
2022/11/27 06:46:32;;;;;;;;;;;;;;;4.49;100.00;101689.38;5576625;31;34510;-73
2022/11/27 06:49:38;;;;;;;;;;;;;;;4.44;100.00;101699.31;5576846;31;34528;-73
2022/11/27 06:52:45;;;;;;;;;;;;;;;4.52;100.00;101698.81;5576312;31;33820;-74
2022/11/27 06:55:55;;;;;;;;;;;;;;;4.44;100.00;101699.31;5590114;31;34534;-74
2022/11/27 06:59:04;;;;;;;;;;;;;;;4.53;100.00;101701.37;5590113;31;35197;-73
2022/11/27 07:02:13;;;;;;;;;;;;;;;4.59;100.00;101702.78;5576496;31;35242;-73
2022/11/27 07:05:18;;;;;;;;;;;;;;;4.50;100.00;101711.25;5590072;31;34924;-74
2022/11/27 07:08:24;;;;;;;;;;;;;;;4.43;100.00;101709.91;5563167;31;34713;-74
2022/11/27 07:11:32;;;;;;;;;;;;;;;4.35;100.00;101703.38;5576849;31;34665;-73
2022/11/27 07:14:39;;;;;;;;;;;;;;;4.29;100.00;101695.88;5590090;31;35160;-74
2022/11/27 07:17:46;;;;;;;;;;;;;;;4.28;100.00;101702.06;5589570;31;34651;-74
2022/11/27 07:20:54;;;;;;;;;;;;;;;4.25;100.00;101698.78;5589470;31;34507;-73
2022/11/27 07:24:00;;;;;;;;;;;;;;;4.35;100.00;101703.38;5589883;31;35156;-73
2022/11/27 07:27:06;;;;;;;;;;;;;;;4.46;100.00;101702.69;5590151;31;35178;-74
2022/11/27 07:30:12;;;;;;;;;;;;;;;4.55;100.00;101711.78;5589802;31;35254;-73
2022/11/27 07:33:22;;;;;;;;;;;;;;;4.58;100.00;101714.22;5590010;31;34548;-74
2022/11/27 07:36:29;;;;;;;;;;;;;;;4.52;100.00;101710.19;5589808;31;34520;-73
2022/11/27 07:39:36;;;;;;;;;;;;;;;4.64;100.00;101704.16;5589664;31;35170;-73
2022/11/27 07:43:03;;;;;;;;;;;;;;;4.59;100.00;101713.28;5575996;31;35787;-73
2022/11/27 07:46:15;;;;;;;;;;;;;;;4.62;100.00;101716.56;5575801;31;34609;-73
2022/11/27 07:49:21;;;;;;;;;;;;;;;4.72;100.00;101715.03;5589347;31;35064;-73
2022/11/27 07:52:28;;;;;;;;;;;;;;;4.80;100.00;101712.75;5575691;31;35231;-73
2022/11/27 07:55:36;;;;;;;;;;;;;;;4.98;100.00;101718.63;5589682;31;34571;-73
2022/11/27 07:58:43;;;;;;;;;;;;;;;4.97;100.00;101724.81;5576152;31;34618;-73
2022/11/27 08:01:48;;;;;;;;;;;;;;;5.07;100.00;101720.66;5589773;31;34580;-73
2022/11/27 08:04:56;;;;;;;;;;;;;;;4.92;100.00;101716.38;5589653;31;35071;-73
2022/11/27 08:08:04;;;;;;;;;;;;;;;4.74;100.00;101710.50;5589535;31;35367;-73
2022/11/27 08:11:26;;;;;;;;;;;;;;;4.72;100.00;101715.03;5575360;31;35709;-73
2022/11/27 08:14:32;;;;;;;;;;;;;;;4.72;100.00;101711.56;5575429;31;35017;-73
2022/11/27 08:17:40;;;;;;;;;;;;;;;4.80;100.00;101707.47;5575296;31;34974;-74
2022/11/27 08:20:46;;;;;;;;;;;;;;;4.78;100.00;101705.91;5589327;31;34513;-74
2022/11/27 08:23:53;;;;;;;;;;;;;;;4.87;100.00;101709.72;5575624;31;34502;-73
2022/11/27 08:27:00;;;;;;;;;;;;;;;4.85;100.00;101704.56;5589177;31;34994;-73
2022/11/27 08:30:06;;;;;;;;;;;;;;;4.95;100.00;101716.16;5575234;31;35342;-73
2022/11/27 08:33:14;;;;;;;;;;;;;;;4.96;100.00;101712.59;5589252;31;35197;-74
2022/11/27 08:36:25;;;;;;;;;;;;;;;4.95;100.00;101723.22;5589036;31;34507;-74
2022/11/27 08:39:30;;;;;;;;;;;;;;;4.99;100.00;101719.44;5588985;31;34563;-74
2022/11/27 08:42:35;;;;;;;;;;;;;;;4.93;100.00;101725.13;5588748;31;34604;-73
2022/11/27 08:45:42;;;;;;;;;;;;;;;5.10;100.00;101725.69;5589003;31;34657;-73
2022/11/27 08:48:49;;;;;;;;;;;;;;;5.20;100.00;101732.06;5562483;31;34386;-73
2022/11/27 08:51:58;;;;;;;;;;;;;;;5.30;100.00;101734.06;5588763;31;34492;-73
2022/11/27 08:55:06;;;;;;;;;;;;;;;5.34;100.00;101730.28;5588732;31;34584;-74
2022/11/27 08:58:16;;;;;;;;;;;;;;;5.32;100.00;101737.47;5574589;31;34849;-74
2022/11/27 09:01:29;;;;;;;;;;;;;;;5.68;100.00;101730.59;5577159;31;35161;-73
2022/11/27 09:04:39;;;;;;;;;;;;;;;5.85;100.00;101742.63;5577570;31;34586;-74
2022/11/27 09:07:49;;;;;;;;;;;;;;;5.80;100.00;101731.56;5591177;31;34437;-73
2022/11/27 09:10:59;;;;;;;;;;;;;;;5.70;100.00;101743.66;5590811;31;35051;-74
2022/11/27 09:14:04;;;;;;;;;;;;;;;5.38;100.00;101732.63;5591090;31;34566;-73
2022/11/27 09:17:11;;;;;;;;;;;;;;;5.51;100.00;101736.16;5590856;31;35031;-74
2022/11/27 09:20:17;;;;;;;;;;;;;;;5.53;100.00;101744.75;5591014;31;34492;-74
2022/11/27 09:23:24;;;;;;;;;;;;;;;5.42;100.00;101744.63;5576967;31;33545;-74
2022/11/27 09:26:33;;;;;;;;;;;;;;;5.37;100.00;101743.28;5590921;31;35117;-74
2022/11/27 09:29:39;;;;;;;;;;;;;;;5.16;100.00;101745.50;5576719;31;34801;-73
2022/11/27 09:32:46;;;;;;;;;;;;;;;5.24;100.00;101754.59;5577016;31;34734;-74
2022/11/27 09:35:55;;;;;;;;;;;;;;;5.38;100.00;101750.19;5576800;31;35585;-73
2022/11/27 09:39:06;;;;;;;;;;;;;;;5.37;100.00;101746.75;5576692;31;34324;-74
2022/11/27 09:42:20;;;;;;;;;;;;;;;5.41;100.00;101742.13;5590619;31;34731;-73
2022/11/27 09:45:26;;;;;;;;;;;;;;;5.42;100.00;101743.81;5590351;31;34643;-74
2022/11/27 09:48:36;;;;;;;;;;;;;;;5.40;100.00;101738.63;5590601;31;35105;-75
2022/11/27 09:51:43;;;;;;;;;;;;;;;5.31;100.00;101741.03;5564102;31;34736;-75
2022/11/27 09:54:55;;;;;;;;;;;;;;;5.45;100.00;101733.91;5590791;31;34589;-73
2022/11/27 09:58:04;;;;;;;;;;;;;;;5.58;100.00;101731.28;5576566;31;34570;-73
2022/11/27 10:01:10;;;;;;;;;;;;;;;5.40;100.00;101725.47;5576825;31;34321;-73
2022/11/27 10:04:19;;;;;;;;;;;;;;;5.48;100.00;101728.44;5576899;31;35094;-73
2022/11/27 10:07:26;;;;;;;;;;;;;;;5.39;100.00;101725.56;5576338;31;34593;-73
2022/11/27 10:10:49;;;;;;;;;;;;;;;5.43;100.00;101722.63;5589852;31;35128;-73
2022/11/27 10:14:05;;;;;;;;;;;;;;;5.50;100.00;101718.66;5576200;31;33883;-72
2022/11/27 10:17:24;;;;;;;;;;;;;;;5.36;100.00;101718.75;5590086;31;35157;-73
2022/11/27 10:20:42;;;;;;;;;;;;;;;5.50;100.00;101720.44;5576375;31;33503;-73
2022/11/27 10:23:59;;;;;;;;;;;;;;;5.60;100.00;101716.25;5590266;31;35057;-73
2022/11/27 10:27:11;;;;;;;;;;;;;;;5.57;100.00;101714.66;5576519;31;34420;-74
2022/11/27 10:30:19;;;;;;;;;;;;;;;5.41;100.00;101710.53;5590014;31;34861;-73
2022/11/27 10:33:36;;;;;;;;;;;;;;;5.42;100.00;101704.34;5590474;31;35014;-73
2022/11/27 10:36:46;;;;;;;;;;;;;;;5.41;100.00;101707.91;5590126;31;34588;-73
2022/11/27 10:39:53;;;;;;;;;;;;;;;5.37;100.00;101701.16;5576107;31;34069;-73
2022/11/27 10:43:04;;;;;;;;;;;;;;;5.58;100.00;101694.44;5590127;31;35136;-73
2022/11/27 10:46:14;;;;;;;;;;;;;;;5.61;100.00;101695.09;5590008;31;35047;-74
2022/11/27 10:49:20;;;;;;;;;;;;;;;5.42;100.00;101696.44;5590095;31;34478;-74
2022/11/27 10:52:26;;;;;;;;;;;;;;;5.40;100.00;101693.91;5590234;31;34960;-74
2022/11/27 10:55:36;;;;;;;;;;;;;;;5.44;100.00;101691.91;5590113;31;35113;-74
2022/11/27 10:58:53;;;;;;;;;;;;;;;5.53;100.00;101688.66;5590136;31;35113;-74
2022/11/27 11:02:00;;;;;;;;;;;;;;;5.56;100.00;101685.81;5575987;31;34842;-73
2022/11/27 11:05:25;;;;;;;;;;;;;;;5.53;100.00;101678.97;5590028;31;35035;-73
2022/11/27 11:09:05;;;;;;;;;;;;;;;5.41;100.00;101685.06;5590098;31;34933;-73
2022/11/27 11:12:17;;;;;;;;;;;;;;;5.53;100.00;101675.47;5589979;31;34540;-73
2022/11/27 11:15:24;;;;;;;;;;;;;;;5.58;100.00;101676.88;5575578;31;34704;-73
2022/11/27 11:18:32;;;;;;;;;;;;;;;5.42;100.00;101670.94;5569321;32;35869;-72
2022/11/27 11:21:41;;;;;;;;;;;;;;;5.41;100.00;101669.28;5570053;32;35013;-73
2022/11/27 11:24:51;;;;;;;;;;;;;;;5.34;100.00;101653.97;5570225;32;34608;-73
2022/11/27 11:27:57;;;;;;;;;;;;;;;5.32;100.00;101659.38;5570140;32;35146;-74
2022/11/27 11:31:07;;;;;;;;;;;;;;;5.36;100.00;101655.59;5570147;32;34493;-73
2022/11/27 11:34:23;;;;;;;;;;;;;;;5.39;100.00;101655.38;5569533;32;34661;-73
2022/11/27 11:37:33;;;;;;;;;;;;;;;5.26;100.00;101654.50;5570217;32;35192;-72
2022/11/27 11:40:45;;;;;;;;;;;;;;;5.44;100.00;101647.16;5570164;32;35108;-73
2022/11/27 11:43:55;;;;;;;;;;;;;;;5.66;100.00;101639.50;5570200;32;35127;-74
2022/11/27 11:47:03;;;;;;;;;;;;;;;5.50;100.00;101636.22;5570023;32;34472;-73
2022/11/27 11:50:12;;;;;;;;;;;;;;;5.59;100.00;101638.22;5570086;32;34508;-74
2022/11/27 11:53:15;;;;;;;;;;;;;;;5.48;100.00;101622.31;5570077;32;34405;-73
2022/11/27 11:56:27;;;;;;;;;;;;;;;5.57;100.00;101626.94;5569124;32;34940;-73
2022/11/27 11:59:55;;;;;;;;;;;;;;;5.95;100.00;101624.34;5570273;32;34928;-72
2022/11/27 12:03:01;;;;;;;;;;;;;;;6.07;100.00;101616.41;5569766;32;34968;-72
2022/11/27 12:06:17;;;;;;;;;;;;;;;5.96;100.00;101618.09;5569772;32;34482;-72
2022/11/27 12:09:26;;;;;;;;;;;;;;;5.88;100.00;101612.53;5569814;32;35160;-73
2022/11/27 12:12:51;;;;;;;;;;;;;;;6.07;100.00;101618.19;5569778;32;34715;-73
2022/11/27 12:16:05;;;;;;;;;;;;;;;5.91;100.00;101613.16;5529821;31;1268112;-73
2022/11/27 12:19:23;;;;;;;;;;;;;;;5.82;100.00;101610.28;5569752;32;34999;-74
2022/11/27 12:22:37;;;;;;;;;;;;;;;5.80;100.00;101613.06;5568815;32;34436;-74
2022/11/27 12:25:45;;;;;;;;;;;;;;;5.68;100.00;101601.56;5568627;32;35874;-73
2022/11/27 12:29:03;;;;;;;;;;;;;;;5.50;100.00;101600.22;5569704;32;34548;-73
2022/11/27 12:32:14;;;;;;;;;;;;;;;5.53;100.00;101613.16;5569448;32;34510;-73
2022/11/27 12:35:37;;;;;;;;;;;;;;;5.58;100.00;101604.94;5567761;32;35614;-73
2022/11/27 12:38:59;;;;;;;;;;;;;;;5.71;100.00;101610.22;5569389;32;34632;-74
2022/11/27 12:42:03;;;;;;;;;;;;;;;5.88;100.00;101609.91;5568632;32;34360;-73
2022/11/27 12:45:15;;;;;;;;;;;;;;;5.86;100.00;101604.69;5568288;32;35289;-73
2022/11/27 12:48:23;;;;;;;;;;;;;;;5.66;100.00;101602.66;5569355;32;35126;-73
2022/11/27 12:51:30;;;;;;;;;;;;;;;5.73;100.00;101600.41;5568406;32;34979;-74
2022/11/27 12:54:58;;;;;;;;;;;;;;;5.84;100.00;101590.81;5569133;32;35223;-73
2022/11/27 12:58:05;;;;;;;;;;;;;;;5.82;100.00;101597.13;5561649;32;34825;-72
2022/11/27 13:01:19;;;;;;;;;;;;;;;5.73;100.00;101592.50;5568233;32;34522;-72
2022/11/27 13:04:38;;;;;;;;;;;;;;;5.76;100.00;101592.31;5568951;32;34478;-73
2022/11/27 13:07:46;;;;;;;;;;;;;;;5.82;100.00;101597.13;5568975;32;35039;-73
2022/11/27 13:10:55;;;;;;;;;;;;;;;5.85;100.00;101600.41;5568064;32;35808;-73
2022/11/27 13:14:15;;;;;;;;;;;;;;;5.91;100.00;101588.59;5568696;32;35209;-73
2022/11/27 13:17:20;;;;;;;;;;;;;;;5.87;100.00;101584.50;5576502;31;34537;-74
2022/11/27 13:20:31;;;;;;;;;;;;;;;5.81;100.00;101583.13;5574216;31;35402;-74
2022/11/27 13:23:36;;;;;;;;;;;;;;;5.82;100.00;101576.91;5588310;31;35064;-74
2022/11/27 13:27:02;;;;;;;;;;;;;;;5.88;100.00;101579.16;5588157;31;35184;-73
2022/11/27 13:30:17;;;;;;;;;;;;;;;5.93;100.00;101574.41;5588172;31;34907;-73
2022/11/27 13:33:33;;;;;;;;;;;;;;;5.78;100.00;101572.81;5588140;31;34936;-73
2022/11/27 13:36:40;;;;;;;;;;;;;;;5.64;100.00;101579.03;5587808;31;35207;-73
2022/11/27 13:39:45;;;;;;;;;;;;;;;5.67;100.00;101576.19;5587815;31;35352;-72
2022/11/27 13:42:55;;;;;;;;;;;;;;;5.75;100.00;101573.03;5588142;31;35185;-72
2022/11/27 13:46:07;;;;;;;;;;;;;;;5.84;100.00;101577.66;5588944;31;34556;-72
2022/11/27 13:49:23;;;;;;;;;;;;;;;5.96;100.00;101579.44;5591192;31;34471;-73
2022/11/27 13:52:33;;;;;;;;;;;;;;;5.88;100.00;101573.03;5590592;31;34953;-72
2022/11/27 13:55:51;;;;;;;;;;;;;;;5.85;100.00;101573.22;5577151;31;34553;-72
2022/11/27 13:58:59;;;;;;;;;;;;;;;5.75;100.00;101580.09;5576536;31;33018;-72
2022/11/27 14:02:05;;;;;;;;;;;;;;;5.66;100.00;101578.94;5576684;31;35358;-72
2022/11/27 14:05:14;;;;;;;;;;;;;;;5.69;100.00;101584.00;5590478;31;35298;-73
2022/11/27 14:08:30;;;;;;;;;;;;;;;5.65;100.00;101575.47;5590532;31;34591;-73
2022/11/27 14:11:43;;;;;;;;;;;;;;;5.87;100.00;101574.81;5590675;31;34939;-73
2022/11/27 14:14:58;;;;;;;;;;;;;;;5.86;100.00;101567.84;5577174;31;34873;-73
2022/11/27 14:18:19;;;;;;;;;;;;;;;5.78;100.00;101572.81;5590022;31;34438;-73
2022/11/27 14:21:40;;;;;;;;;;;;;;;5.80;100.00;101573.56;5590352;31;35182;-73
2022/11/27 14:24:54;;;;;;;;;;;;;;;5.63;100.00;101592.31;5590357;31;34631;-73
2022/11/27 14:28:02;;;;;;;;;;;;;;;5.76;100.00;101585.22;5590445;31;34532;-74
2022/11/27 14:31:26;;;;;;;;;;;;;;;5.73;100.00;101580.19;5576569;31;35966;-73
2022/11/27 14:34:32;;;;;;;;;;;;;;;5.67;100.00;101594.62;5590299;31;34562;-73
2022/11/27 14:37:37;;;;;;;;;;;;;;;5.71;100.00;101587.38;5576264;31;34610;-72
2022/11/27 14:40:40;;;;;;;;;;;;;;;5.56;100.00;101596.34;5576534;31;34436;-73
2022/11/27 14:43:46;;;;;;;;;;;;;;;5.49;100.00;101597.69;5576662;31;35580;-73
2022/11/27 14:46:50;;;;;;;;;;;;;;;5.43;100.00;101592.84;5576557;31;34420;-73
2022/11/27 14:49:57;;;;;;;;;;;;;;;5.35;100.00;101595.16;5576270;31;35596;-72
2022/11/27 14:53:10;;;;;;;;;;;;;;;5.33;100.00;101597.88;5590374;31;35121;-74
2022/11/27 14:56:16;;;;;;;;;;;;;;;5.33;100.00;101591.78;5590054;31;35062;-73
2022/11/27 14:59:23;;;;;;;;;;;;;;;5.52;100.00;101603.56;5589485;31;34456;-73
2022/11/27 15:02:27;;;;;;;;;;;;;;;5.33;100.00;101597.03;5590153;31;34262;-72
2022/11/27 15:05:35;;;;;;;;;;;;;;;5.34;100.00;101601.38;5589977;31;35153;-71
2022/11/27 15:08:46;;;;;;;;;;;;;;;5.38;100.00;101603.69;5590034;31;35069;-74
2022/11/27 15:12:13;;;;;;;;;;;;;;;5.24;100.00;101602.00;5590052;31;34526;-74
2022/11/27 15:15:21;;;;;;;;;;;;;;;5.09;100.00;101610.06;5589906;31;34660;-72
2022/11/27 15:18:29;;;;;;;;;;;;;;;5.07;100.00;101606.72;5589708;31;34863;-74
2022/11/27 15:21:37;;;;;;;;;;;;;;;5.11;100.00;101610.81;5576014;31;33226;-75
2022/11/27 15:24:43;;;;;;;;;;;;;;;5.06;100.00;101603.22;5589926;31;34569;-74
2022/11/27 15:27:51;;;;;;;;;;;;;;;5.28;100.00;101607.88;5589523;31;34860;-72
2022/11/27 15:30:57;;;;;;;;;;;;;;;5.14;100.00;101608.81;5575734;31;34942;-72
2022/11/27 15:34:18;;;;;;;;;;;;;;;5.21;100.00;101598.72;5589585;31;34801;-73
2022/11/27 15:37:26;;;;;;;;;;;;;;;5.11;100.00;101598.50;5589361;31;34937;-73
2022/11/27 15:40:32;;;;;;;;;;;;;;;5.13;100.00;101601.03;5575617;31;34583;-72
2022/11/27 15:43:38;;;;;;;;;;;;;;;5.17;100.00;101602.53;5589568;31;35314;-73
2022/11/27 15:46:45;;;;;;;;;;;;;;;5.12;100.00;101607.25;5575897;31;34465;-72
2022/11/27 15:49:50;;;;;;;;;;;;;;;5.13;100.00;101601.03;5589458;31;35179;-72
2022/11/27 15:52:59;;;;;;;;;;;;;;;5.17;100.00;101592.00;5589572;31;35217;-72
2022/11/27 15:56:06;;;;;;;;;;;;;;;5.22;100.00;101603.06;5589609;31;35088;-72
2022/11/27 15:59:19;;;;;;;;;;;;;;;5.20;100.00;101607.56;5575489;31;35429;-72
2022/11/27 16:02:29;;;;;;;;;;;;;;;5.09;100.00;101596.91;5575935;31;34590;-73
2022/11/27 16:05:36;;;;;;;;;;;;;;;5.16;100.00;101598.19;5575194;31;34540;-71
2022/11/27 16:08:44;;;;;;;;;;;;;;;5.25;100.00;101602.84;5589564;31;35238;-73
2022/11/27 16:11:51;;;;;;;;;;;;;;;5.20;100.00;101604.94;5575550;31;35233;-73